Swanbourne, Australia
Current Conditions -  °F | °C
As of 8:00 PM on Friday 24 Oct 2014 (Local Time) from YPJT Reporting Station
Clear Clear  
Wind Chill: 64°   Ceiling: Unl
Heat Index: 64°   Visibility: 6mi
Dew Point: 54°   Wind: 8mph
Humidity: 68%   Direction: 220°SW
Pressure: 30"   Gusts: NA
Location:  31.98°S, 115.77°E
Report Text: YPJT 241200Z AUTO 22007KT 9999 // NCD 18/12 Q1016
Loading
Personal Weather Stations






























Interactive Weather Map
Tropical Storm Tracking
New forecast layout! Learn more

10-Day Weather Forecast

Advertisements
Track Severe Weather on mobile